createdAt,value
2019-02-06T00:00:46.512Z,21.00
2019-02-06T00:01:45.856Z,18.93
2019-02-06T00:02:20.569Z,21.63
2019-02-06T00:02:55.031Z,15.43
2019-02-06T00:03:29.675Z,17.47
2019-02-06T00:04:04.276Z,18.57
2019-02-06T00:04:38.898Z,19.17
2019-02-06T00:05:14.328Z,19.77
2019-02-06T00:05:49.428Z,17.07
2019-02-06T00:06:23.819Z,16.80
2019-02-06T00:06:58.570Z,17.20
2019-02-06T00:07:32.914Z,20.47
2019-02-06T00:08:07.843Z,17.63
2019-02-06T00:08:42.316Z,18.13
2019-02-06T00:09:17.665Z,17.87
2019-02-06T00:09:52.019Z,16.80
2019-02-06T00:10:26.647Z,19.00
2019-02-06T00:11:01.333Z,19.03
2019-02-06T00:11:35.999Z,17.93
2019-02-06T00:12:10.339Z,19.40
2019-02-06T00:12:44.981Z,16.80
2019-02-06T00:13:19.299Z,18.93
2019-02-06T00:13:54.624Z,15.03
2019-02-06T00:14:29.167Z,19.27
2019-02-06T00:15:04.351Z,18.77
2019-02-06T00:15:38.989Z,16.10
2019-02-06T00:16:13.873Z,18.20
2019-02-06T00:16:48.209Z,20.73
2019-02-06T00:17:22.519Z,14.63
2019-02-06T00:17:57.222Z,16.00
2019-02-06T00:18:32.033Z,15.03
2019-02-06T00:19:06.485Z,18.63
2019-02-06T00:19:41.073Z,20.03
2019-02-06T00:20:15.487Z,17.23
2019-02-06T00:20:49.762Z,17.37
2019-02-06T00:21:24.371Z,17.67
2019-02-06T00:21:58.736Z,17.87
2019-02-06T00:22:33.489Z,18.60
2019-02-06T00:23:08.179Z,18.50
2019-02-06T00:23:42.798Z,20.83
2019-02-06T00:24:17.546Z,20.20
2019-02-06T00:24:51.934Z,18.70
2019-02-06T00:25:26.547Z,19.80
2019-02-06T00:26:00.954Z,19.43
2019-02-06T00:26:35.762Z,19.37
2019-02-06T00:27:10.096Z,17.30
2019-02-06T00:27:44.808Z,18.03
2019-02-06T00:28:19.437Z,18.70
2019-02-06T00:28:54.495Z,17.90
2019-02-06T00:29:28.831Z,20.53
2019-02-06T00:30:05.227Z,15.03
2019-02-06T00:30:39.567Z,15.23
2019-02-06T00:31:14.092Z,17.57
2019-02-06T00:31:48.736Z,16.90
2019-02-06T00:32:23.491Z,17.73
2019-02-06T00:32:57.856Z,17.93
2019-02-06T00:33:32.594Z,13.83
2019-02-06T00:34:06.969Z,16.17
2019-02-06T00:34:41.488Z,19.43
2019-02-06T00:35:25.499Z,19.47
2019-02-06T00:35:52.375Z,18.73
2019-02-06T00:36:26.780Z,19.30
2019-02-06T00:37:01.214Z,16.57
2019-02-06T00:37:35.577Z,20.10
2019-02-06T00:38:09.926Z,20.90
2019-02-06T00:38:44.528Z,20.67
2019-02-06T00:39:18.875Z,16.90
2019-02-06T00:39:53.515Z,20.83
2019-02-06T00:40:28.134Z,21.27
2019-02-06T00:41:03.149Z,16.23
2019-02-06T00:41:37.555Z,16.97
2019-02-06T00:42:11.911Z,16.30
2019-02-06T00:42:46.280Z,17.60
2019-02-06T00:43:20.899Z,18.77
2019-02-06T00:43:55.503Z,14.00
2019-02-06T00:44:29.923Z,17.23
2019-02-06T00:45:04.871Z,18.93
2019-02-06T00:45:39.208Z,17.27
2019-02-06T00:46:13.556Z,17.50
2019-02-06T00:46:47.989Z,16.83
2019-02-06T00:47:22.398Z,17.07
2019-02-06T00:47:56.809Z,17.13
2019-02-06T00:48:31.241Z,18.73
2019-02-06T00:49:05.831Z,18.87
2019-02-06T00:49:40.481Z,17.17
2019-02-06T00:50:15.256Z,17.83
2019-02-06T00:50:49.602Z,17.87
2019-02-06T00:51:23.958Z,18.03
2019-02-06T00:51:58.494Z,18.53
2019-02-06T00:52:33.008Z,16.33
2019-02-06T00:53:07.671Z,16.37
2019-02-06T00:53:42.022Z,17.57
2019-02-06T00:54:16.647Z,17.50
2019-02-06T00:54:51.257Z,22.43
2019-02-06T00:55:25.648Z,16.20
2019-02-06T00:56:00.139Z,19.27
2019-02-06T00:56:34.605Z,17.67
2019-02-06T00:57:08.988Z,19.17
2019-02-06T00:57:43.339Z,20.10
2019-02-06T00:58:17.678Z,16.13
2019-02-06T00:58:52.352Z,18.50
2019-02-06T00:59:26.733Z,18.10
2019-02-06T01:00:01.143Z,18.47
2019-02-06T01:00:35.615Z,18.03
2019-02-06T01:01:10.404Z,17.03
2019-02-06T01:01:44.976Z,16.93
2019-02-06T01:02:19.523Z,17.27
2019-02-06T01:02:54.017Z,17.93
2019-02-06T01:03:28.366Z,15.17
2019-02-06T01:04:02.842Z,17.37
2019-02-06T01:04:37.337Z,20.37
2019-02-06T01:05:14.081Z,17.30
2019-02-06T01:05:48.634Z,18.83
2019-02-06T01:06:22.994Z,17.90
2019-02-06T01:06:57.350Z,18.63
2019-02-06T01:07:32.058Z,17.23
2019-02-06T01:08:06.583Z,19.73
2019-02-06T01:08:40.904Z,17.37
2019-02-06T01:09:15.258Z,20.13
2019-02-06T01:09:49.692Z,17.53
2019-02-06T01:10:24.094Z,19.50
2019-02-06T01:10:58.461Z,18.60
2019-02-06T01:11:32.833Z,20.33
2019-02-06T01:12:07.524Z,18.00
2019-02-06T01:12:41.858Z,17.63
2019-02-06T01:13:16.199Z,16.97
2019-02-06T01:13:50.809Z,20.00
2019-02-06T01:14:25.116Z,18.00
2019-02-06T01:14:59.500Z,16.63
2019-02-06T01:15:33.901Z,16.47
2019-02-06T01:16:08.583Z,19.67
2019-02-06T01:16:42.916Z,17.63
2019-02-06T01:17:17.374Z,18.07
2019-02-06T01:17:51.715Z,19.70
2019-02-06T01:18:26.064Z,17.57
2019-02-06T01:19:00.484Z,19.13
2019-02-06T01:19:34.934Z,20.43
2019-02-06T01:20:10.122Z,16.87
2019-02-06T01:20:44.481Z,18.80
2019-02-06T01:21:18.819Z,16.17
2019-02-06T01:21:53.196Z,17.27
2019-02-06T01:22:27.654Z,17.37
2019-02-06T01:23:02.414Z,16.33
2019-02-06T01:23:37.142Z,18.87
2019-02-06T01:24:11.668Z,22.77
2019-02-06T01:24:46.282Z,16.53
2019-02-06T01:25:20.908Z,18.20
2019-02-06T01:25:55.511Z,17.73
2019-02-06T01:26:30.386Z,16.83
2019-02-06T01:27:05.033Z,17.30
2019-02-06T01:27:39.468Z,17.83
2019-02-06T01:28:13.815Z,18.07
2019-02-06T01:28:48.331Z,15.13
2019-02-06T01:29:22.685Z,16.20
2019-02-06T01:29:57.266Z,19.57
2019-02-06T01:30:37.112Z,16.00
2019-02-06T01:31:15.537Z,17.03
2019-02-06T01:31:49.837Z,15.60
2019-02-06T01:32:24.434Z,17.27
2019-02-06T01:32:58.783Z,18.20
2019-02-06T01:33:33.152Z,17.80
2019-02-06T01:34:07.547Z,16.87
2019-02-06T01:34:41.873Z,20.50
2019-02-06T01:35:16.464Z,18.30
2019-02-06T01:35:50.815Z,21.57
2019-02-06T01:36:25.235Z,18.70
2019-02-06T01:37:00.115Z,19.50
2019-02-06T01:37:34.503Z,16.27
2019-02-06T01:38:08.857Z,18.77
2019-02-06T01:38:43.203Z,17.63
2019-02-06T01:39:17.536Z,15.50
2019-02-06T01:39:51.975Z,17.00
2019-02-06T01:40:26.322Z,17.10
2019-02-06T01:41:00.732Z,16.13
2019-02-06T01:41:35.125Z,15.77
2019-02-06T01:42:09.816Z,17.20
2019-02-06T01:42:44.348Z,16.37
2019-02-06T01:43:18.697Z,15.83
2019-02-06T01:43:53.126Z,16.30
2019-02-06T01:44:27.507Z,15.40
2019-02-06T01:45:02.279Z,15.57
2019-02-06T01:45:36.716Z,17.53
2019-02-06T01:46:11.094Z,19.30
2019-02-06T01:46:46.046Z,19.20
2019-02-06T01:47:20.481Z,15.80
2019-02-06T01:47:55.136Z,17.53
2019-02-06T01:48:29.777Z,20.30
2019-02-06T01:49:04.584Z,18.03
2019-02-06T01:49:39.060Z,20.87
2019-02-06T01:50:15.377Z,16.40
2019-02-06T01:50:49.678Z,19.17
2019-02-06T01:51:24.022Z,16.67
2019-02-06T01:51:58.718Z,17.43
2019-02-06T01:52:33.089Z,19.10
2019-02-06T01:53:07.470Z,17.07
2019-02-06T01:53:41.931Z,16.00
2019-02-06T01:54:16.304Z,17.13
2019-02-06T01:54:50.765Z,15.40
2019-02-06T01:55:25.455Z,17.87
2019-02-06T01:55:59.867Z,15.07
2019-02-06T01:56:34.226Z,16.70
2019-02-06T01:57:08.917Z,17.70
2019-02-06T01:57:43.281Z,16.23
2019-02-06T01:58:17.879Z,16.13
2019-02-06T01:58:52.257Z,17.50
2019-02-06T01:59:26.864Z,16.07
2019-02-06T02:00:01.273Z,15.17
2019-02-06T02:00:35.942Z,17.93
2019-02-06T02:01:10.335Z,16.47
2019-02-06T02:01:44.709Z,18.43
2019-02-06T02:02:19.055Z,17.87
2019-02-06T02:02:53.664Z,17.97
2019-02-06T02:03:28.313Z,17.87
2019-02-06T02:04:02.936Z,18.37
2019-02-06T02:04:37.350Z,19.50
2019-02-06T02:05:12.758Z,21.00
2019-02-06T02:05:47.478Z,19.13
2019-02-06T02:06:21.900Z,19.30
2019-02-06T02:06:56.555Z,15.77
2019-02-06T02:07:31.012Z,16.30
2019-02-06T02:08:05.715Z,18.47
2019-02-06T02:08:45.993Z,17.73
2019-02-06T02:09:20.694Z,16.87
2019-02-06T02:09:55.171Z,18.60
2019-02-06T02:10:29.941Z,18.83
2019-02-06T02:11:05.051Z,16.37
2019-02-06T02:11:39.469Z,15.60
2019-02-06T02:12:13.979Z,16.33
2019-02-06T02:12:48.463Z,16.87
2019-02-06T02:13:23.128Z,15.23
2019-02-06T02:13:58.065Z,14.83
2019-02-06T02:14:32.491Z,14.27
2019-02-06T02:15:09.015Z,15.13
2019-02-06T02:15:43.629Z,15.07
2019-02-06T02:16:18.337Z,15.47
2019-02-06T02:16:52.723Z,14.50
2019-02-06T02:17:27.669Z,17.53
2019-02-06T02:18:02.453Z,15.20
2019-02-06T02:18:36.859Z,15.70
2019-02-06T02:19:11.554Z,14.03
2019-02-06T02:19:46.067Z,16.83
2019-02-06T02:20:21.989Z,16.47
2019-02-06T02:20:56.375Z,13.33
2019-02-06T02:21:30.835Z,16.30
2019-02-06T02:22:05.549Z,14.93
2019-02-06T02:22:40.050Z,12.60
2019-02-06T02:23:14.413Z,14.47
2019-02-06T02:23:49.072Z,16.03
2019-02-06T02:24:24.035Z,13.80
2019-02-06T02:24:58.777Z,15.33
2019-02-06T02:25:33.817Z,13.37
2019-02-06T02:26:08.362Z,14.10
2019-02-06T02:26:43.058Z,17.03
2019-02-06T02:27:17.686Z,18.17
2019-02-06T02:27:52.161Z,14.97
2019-02-06T02:28:26.531Z,13.30
2019-02-06T02:29:01.226Z,12.70
2019-02-06T02:29:35.755Z,17.27
2019-02-06T02:30:12.015Z,14.93
2019-02-06T02:30:49.854Z,14.23
2019-02-06T02:31:24.539Z,12.13
2019-02-06T02:31:59.009Z,12.13
2019-02-06T02:32:33.582Z,12.87
2019-02-06T02:33:08.060Z,12.83
2019-02-06T02:33:42.671Z,14.07
2019-02-06T02:34:17.141Z,12.90
2019-02-06T02:34:51.555Z,11.30
2019-02-06T02:35:26.195Z,12.67
2019-02-06T02:36:00.926Z,10.53
2019-02-06T02:36:35.443Z,12.83
2019-02-06T02:37:09.873Z,13.10
2019-02-06T02:37:44.269Z,11.40
2019-02-06T02:38:18.636Z,10.53
2019-02-06T02:38:53.026Z,14.17
2019-02-06T02:39:27.418Z,10.90
2019-02-06T02:40:02.451Z,14.50
2019-02-06T02:40:36.840Z,13.23
2019-02-06T02:41:11.552Z,13.07
2019-02-06T02:41:46.040Z,15.17
2019-02-06T02:42:20.421Z,10.87
2019-02-06T02:42:54.899Z,10.70
2019-02-06T02:43:29.336Z,12.43
2019-02-06T02:44:03.798Z,11.73
2019-02-06T02:44:38.211Z,13.27
2019-02-06T02:45:14.633Z,12.03
2019-02-06T02:45:49.620Z,12.70
2019-02-06T02:46:24.091Z,12.70
2019-02-06T02:46:58.867Z,15.47
2019-02-06T02:47:33.586Z,11.30
2019-02-06T02:48:08.287Z,13.20
2019-02-06T02:48:42.931Z,12.40
2019-02-06T02:49:17.782Z,12.30
2019-02-06T02:49:52.164Z,13.53
2019-02-06T02:50:26.845Z,11.60
2019-02-06T02:51:01.375Z,13.70
2019-02-06T02:51:36.602Z,11.80
2019-02-06T02:52:11.248Z,11.27
2019-02-06T02:52:46.046Z,11.27
2019-02-06T02:53:20.454Z,13.00
2019-02-06T02:53:55.158Z,10.83
2019-02-06T02:54:30.222Z,11.03
2019-02-06T02:55:05.747Z,13.23
2019-02-06T02:55:40.129Z,12.03
2019-02-06T02:56:15.053Z,12.33
2019-02-06T02:56:49.684Z,13.23
2019-02-06T02:57:24.350Z,13.33
2019-02-06T02:57:59.045Z,11.87
2019-02-06T02:58:33.759Z,11.53
2019-02-06T02:59:08.456Z,13.63
2019-02-06T02:59:43.377Z,12.33
2019-02-06T03:00:19.672Z,10.20
2019-02-06T03:01:15.854Z,15.13
2019-02-06T03:01:56.840Z,11.93
2019-02-06T03:02:59.331Z,11.97
2019-02-06T03:03:43.293Z,11.23
2019-02-06T03:04:28.316Z,11.10
2019-02-06T03:05:06.772Z,13.97
2019-02-06T03:05:41.174Z,11.20
2019-02-06T03:06:27.140Z,13.57
2019-02-06T03:06:51.727Z,11.43
2019-02-06T03:07:26.205Z,12.43
2019-02-06T03:08:00.659Z,11.67
2019-02-06T03:08:35.053Z,12.07
2019-02-06T03:09:13.192Z,14.63
2019-02-06T03:09:47.566Z,14.57
2019-02-06T03:10:21.951Z,11.60
2019-02-06T03:10:56.331Z,14.07
2019-02-06T03:11:31.137Z,10.60
2019-02-06T03:12:05.568Z,12.13
2019-02-06T03:12:40.016Z,11.23
2019-02-06T03:13:14.331Z,10.87
2019-02-06T03:13:48.716Z,10.93
2019-02-06T03:14:23.331Z,11.43
2019-02-06T03:14:57.673Z,12.37
2019-02-06T03:15:32.466Z,12.30
2019-02-06T03:16:06.873Z,12.83
2019-02-06T03:16:41.218Z,15.50
2019-02-06T03:17:15.589Z,11.13
2019-02-06T03:17:50.196Z,11.13
2019-02-06T03:18:24.645Z,11.33
2019-02-06T03:18:58.991Z,15.47
2019-02-06T03:19:33.356Z,10.40
2019-02-06T03:20:09.300Z,11.10
2019-02-06T03:20:44.135Z,11.60
2019-02-06T03:21:18.467Z,11.53
2019-02-06T03:21:52.827Z,12.37
2019-02-06T03:22:27.169Z,10.93
2019-02-06T03:23:01.948Z,12.40
2019-02-06T03:23:36.349Z,10.53
2019-02-06T03:24:10.687Z,11.47
2019-02-06T03:24:45.044Z,10.60
2019-02-06T03:25:19.391Z,11.53
2019-02-06T03:25:53.977Z,10.83
2019-02-06T03:26:28.366Z,11.33
2019-02-06T03:27:02.857Z,11.50
2019-02-06T03:27:37.219Z,13.20
2019-02-06T03:28:11.553Z,9.97
2019-02-06T03:28:46.154Z,10.53
2019-02-06T03:29:20.484Z,11.10
2019-02-06T03:29:54.835Z,11.23
2019-02-06T03:30:29.195Z,12.37
2019-02-06T03:31:03.600Z,10.40
2019-02-06T03:31:37.951Z,10.70
2019-02-06T03:32:12.575Z,11.60
2019-02-06T03:32:46.939Z,12.13
2019-02-06T03:33:21.292Z,12.83
2019-02-06T03:33:55.906Z,13.03
2019-02-06T03:34:30.321Z,11.00
2019-02-06T03:35:05.950Z,11.60
2019-02-06T03:35:40.363Z,14.17
2019-02-06T03:36:14.764Z,14.30
2019-02-06T03:36:49.085Z,12.20
2019-02-06T03:37:23.672Z,13.23
2019-02-06T03:37:58.326Z,12.23
2019-02-06T03:38:32.714Z,14.27
2019-02-06T03:39:09.260Z,12.77
2019-02-06T03:39:43.627Z,12.57
2019-02-06T03:40:18.184Z,11.90
2019-02-06T03:40:52.514Z,12.03
2019-02-06T03:41:26.962Z,12.57
2019-02-06T03:42:01.348Z,11.97
2019-02-06T03:42:35.732Z,12.17
2019-02-06T03:43:10.073Z,13.03
2019-02-06T03:43:44.420Z,12.30
2019-02-06T03:44:18.739Z,11.43
2019-02-06T03:44:53.110Z,12.23
2019-02-06T03:45:27.733Z,12.13
2019-02-06T03:46:02.160Z,11.97
2019-02-06T03:46:36.508Z,14.93
2019-02-06T03:47:10.867Z,13.83
2019-02-06T03:47:45.245Z,13.53
2019-02-06T03:48:19.586Z,13.00
2019-02-06T03:48:53.947Z,11.90
2019-02-06T03:49:28.389Z,12.40
2019-02-06T03:50:02.836Z,13.70
2019-02-06T03:50:37.423Z,13.67
2019-02-06T03:51:11.779Z,14.00
2019-02-06T03:51:46.384Z,12.30
2019-02-06T03:52:20.733Z,14.10
2019-02-06T03:52:55.150Z,11.93
2019-02-06T03:53:29.604Z,13.20
2019-02-06T03:54:04.509Z,12.57
2019-02-06T03:54:39.123Z,14.83
2019-02-06T03:55:13.494Z,12.07
2019-02-06T03:55:48.115Z,14.83
2019-02-06T03:56:22.475Z,13.53
2019-02-06T03:56:56.924Z,11.90
2019-02-06T03:57:31.295Z,12.90
2019-02-06T03:58:06.139Z,17.13
2019-02-06T03:58:40.514Z,12.77
2019-02-06T03:59:14.872Z,13.00
2019-02-06T03:59:49.202Z,13.57
2019-02-06T04:00:23.545Z,12.40
2019-02-06T04:00:57.873Z,14.93
2019-02-06T04:01:32.340Z,16.27
2019-02-06T04:02:07.034Z,15.77
2019-02-06T04:02:41.376Z,12.83
2019-02-06T04:03:15.700Z,12.23
2019-02-06T04:03:50.040Z,14.00
2019-02-06T04:04:24.366Z,14.90
2019-02-06T04:04:58.708Z,13.83
2019-02-06T04:05:33.097Z,15.67
2019-02-06T04:06:07.540Z,13.10
2019-02-06T04:06:53.658Z,15.17
2019-02-06T04:07:17.924Z,13.27
2019-02-06T04:07:52.854Z,12.70
2019-02-06T04:08:27.185Z,15.77
2019-02-06T04:09:01.576Z,14.83
2019-02-06T04:09:35.928Z,13.87
2019-02-06T04:10:12.203Z,13.23
2019-02-06T04:10:46.608Z,15.77
2019-02-06T04:11:21.191Z,15.20
2019-02-06T04:11:55.528Z,14.57
2019-02-06T04:12:29.952Z,11.40
2019-02-06T04:13:04.299Z,13.43
2019-02-06T04:13:38.677Z,11.93
2019-02-06T04:14:13.026Z,12.53
2019-02-06T04:14:47.649Z,15.60
2019-02-06T04:15:22.110Z,12.53
2019-02-06T04:15:56.701Z,15.23
2019-02-06T04:16:31.148Z,14.73
2019-02-06T04:17:05.655Z,13.50
2019-02-06T04:17:39.951Z,14.07
2019-02-06T04:18:14.289Z,13.23
2019-02-06T04:18:48.728Z,16.23
2019-02-06T04:19:23.056Z,13.47
2019-02-06T04:19:57.522Z,15.40
2019-02-06T04:20:31.904Z,14.30
2019-02-06T04:21:06.533Z,17.43
2019-02-06T04:21:40.902Z,15.67
2019-02-06T04:22:15.511Z,13.53
2019-02-06T04:22:50.253Z,16.33
2019-02-06T04:23:24.625Z,13.90
2019-02-06T04:23:58.952Z,14.83
2019-02-06T04:24:33.357Z,18.47
2019-02-06T04:25:07.860Z,16.87
2019-02-06T04:25:42.215Z,15.13
2019-02-06T04:26:16.804Z,13.63
2019-02-06T04:26:51.138Z,17.60
2019-02-06T04:27:26.054Z,13.77
2019-02-06T04:28:00.489Z,14.57
2019-02-06T04:28:34.842Z,19.73
2019-02-06T04:29:09.226Z,17.23
2019-02-06T04:29:43.839Z,14.77
2019-02-06T04:30:18.410Z,19.37
2019-02-06T04:30:52.776Z,17.90
2019-02-06T04:31:27.157Z,18.03
2019-02-06T04:32:01.797Z,15.90
2019-02-06T04:32:36.178Z,17.60
2019-02-06T04:33:10.538Z,16.87
2019-02-06T04:33:44.868Z,19.03
2019-02-06T04:34:19.229Z,23.33
2019-02-06T04:34:53.551Z,23.33
2019-02-06T04:35:27.934Z,15.43
2019-02-06T04:36:02.328Z,19.03
2019-02-06T04:36:37.047Z,19.60
2019-02-06T04:37:11.376Z,20.03
2019-02-06T04:37:45.857Z,18.47
2019-02-06T04:38:20.199Z,18.73
2019-02-06T04:38:54.829Z,19.27
2019-02-06T04:39:29.490Z,19.60
2019-02-06T04:40:04.670Z,18.30
2019-02-06T04:40:39.322Z,21.77
2019-02-06T04:41:13.734Z,21.17
2019-02-06T04:41:48.151Z,22.80
2019-02-06T04:42:22.518Z,22.03
2019-02-06T04:42:57.113Z,23.43
2019-02-06T04:43:31.764Z,23.80
2019-02-06T04:44:06.355Z,27.83
2019-02-06T04:44:40.682Z,27.37
2019-02-06T04:45:16.147Z,25.63
2019-02-06T04:45:50.617Z,24.63
2019-02-06T04:46:24.961Z,25.60
2019-02-06T04:46:59.680Z,23.87
2019-02-06T04:47:34.036Z,25.60
2019-02-06T04:48:08.555Z,26.03
2019-02-06T04:48:43.027Z,28.90
2019-02-06T04:49:17.332Z,24.37
2019-02-06T04:49:51.672Z,28.00
2019-02-06T04:50:26.283Z,25.63
2019-02-06T04:51:00.971Z,24.60
2019-02-06T04:51:35.388Z,25.80
2019-02-06T04:52:09.733Z,28.50
2019-02-06T04:52:44.071Z,25.77
2019-02-06T04:53:18.502Z,27.90
2019-02-06T04:53:52.861Z,25.87
2019-02-06T04:54:27.211Z,25.50
2019-02-06T04:55:01.948Z,26.07
2019-02-06T04:55:36.347Z,25.30
2019-02-06T04:56:10.709Z,24.80
2019-02-06T04:56:45.055Z,26.37
2019-02-06T04:57:19.406Z,31.60
2019-02-06T04:57:53.791Z,25.90
2019-02-06T04:58:28.480Z,27.83
2019-02-06T04:59:03.099Z,26.80
2019-02-06T04:59:37.719Z,25.73
2019-02-06T05:00:18.503Z,24.30
2019-02-06T05:00:53.202Z,26.53
2019-02-06T05:01:27.595Z,28.27
2019-02-06T05:02:01.996Z,26.47
2019-02-06T05:02:36.493Z,26.37
2019-02-06T05:03:10.911Z,28.13
2019-02-06T05:03:45.274Z,27.67
2019-02-06T05:04:19.614Z,27.13
2019-02-06T05:04:53.959Z,30.77
2019-02-06T05:05:28.477Z,26.17
2019-02-06T05:06:02.866Z,27.13
2019-02-06T05:06:37.227Z,31.37
2019-02-06T05:07:19.347Z,26.70
2019-02-06T05:07:47.598Z,28.83
2019-02-06T05:08:22.193Z,25.73
2019-02-06T05:08:57.607Z,28.50
2019-02-06T05:09:32.034Z,30.03
2019-02-06T05:10:07.579Z,27.73
2019-02-06T05:10:41.975Z,32.70
2019-02-06T05:11:16.425Z,27.63
2019-02-06T05:11:50.796Z,30.10
2019-02-06T05:12:25.107Z,28.43
2019-02-06T05:12:59.568Z,28.93
2019-02-06T05:13:33.930Z,29.90
2019-02-06T05:14:08.295Z,26.93
2019-02-06T05:14:42.665Z,29.10
2019-02-06T05:15:17.447Z,28.20
2019-02-06T05:15:51.864Z,28.40
2019-02-06T05:16:26.204Z,28.70
2019-02-06T05:17:00.592Z,29.47
2019-02-06T05:17:35.049Z,30.73
2019-02-06T05:18:09.399Z,25.07
2019-02-06T05:18:43.740Z,34.00
2019-02-06T05:19:18.120Z,26.67
2019-02-06T05:19:52.482Z,27.37
2019-02-06T05:20:37.224Z,27.33
2019-02-06T05:21:13.061Z,30.47
2019-02-06T05:21:47.391Z,28.60
2019-02-06T05:22:21.913Z,31.90
2019-02-06T05:22:56.487Z,29.43
2019-02-06T05:23:31.478Z,24.77
2019-02-06T05:24:05.949Z,28.53
2019-02-06T05:24:40.686Z,28.53
2019-02-06T05:25:15.068Z,29.60
2019-02-06T05:25:49.679Z,29.20
2019-02-06T05:26:24.333Z,27.57
2019-02-06T05:26:59.059Z,30.60
2019-02-06T05:27:33.414Z,25.83
2019-02-06T05:28:08.788Z,29.27
2019-02-06T05:28:43.442Z,28.53
2019-02-06T05:29:18.056Z,27.70
2019-02-06T05:29:52.398Z,25.27
2019-02-06T05:30:27.165Z,28.60
2019-02-06T05:31:01.910Z,31.27
2019-02-06T05:31:36.701Z,29.30
2019-02-06T05:32:11.044Z,29.57
2019-02-06T05:32:45.718Z,31.23
2019-02-06T05:33:20.025Z,27.87
2019-02-06T05:33:54.640Z,25.50
2019-02-06T05:34:29.121Z,29.60
2019-02-06T05:35:03.705Z,30.00
2019-02-06T05:35:38.065Z,27.20
2019-02-06T05:36:12.779Z,29.70
2019-02-06T05:36:50.826Z,27.87
2019-02-06T05:37:31.643Z,28.63
2019-02-06T05:38:00.035Z,28.83
2019-02-06T05:38:34.663Z,30.33
2019-02-06T05:39:09.464Z,26.63
2019-02-06T05:39:43.964Z,31.43
2019-02-06T05:40:18.308Z,28.63
2019-02-06T05:40:52.827Z,31.50
2019-02-06T05:41:27.237Z,29.10
2019-02-06T05:42:01.841Z,34.63
2019-02-06T05:42:36.240Z,32.33
2019-02-06T05:43:10.766Z,29.73
2019-02-06T05:43:45.092Z,29.93
2019-02-06T05:44:19.591Z,33.57
2019-02-06T05:44:53.939Z,30.37
2019-02-06T05:45:28.654Z,28.60
2019-02-06T05:46:03.156Z,31.73
2019-02-06T05:46:37.894Z,32.77
2019-02-06T05:47:12.241Z,29.50
2019-02-06T05:47:47.131Z,32.13
2019-02-06T05:48:21.485Z,33.03
2019-02-06T05:48:56.703Z,29.63
2019-02-06T05:49:32.824Z,33.60
2019-02-06T05:50:08.144Z,28.77
2019-02-06T05:50:42.563Z,28.77
2019-02-06T05:51:17.044Z,32.60
2019-02-06T05:51:52.272Z,31.37
2019-02-06T05:52:26.648Z,34.70
2019-02-06T05:53:01.171Z,31.17
2019-02-06T05:53:35.794Z,28.17
2019-02-06T05:54:10.154Z,30.33
2019-02-06T05:54:44.663Z,29.87
2019-02-06T05:55:19.224Z,29.77
2019-02-06T05:55:53.939Z,28.70
2019-02-06T05:56:28.291Z,28.30
2019-02-06T05:57:03.136Z,31.90
2019-02-06T05:57:37.515Z,30.97
2019-02-06T05:58:12.125Z,30.90
2019-02-06T05:58:46.489Z,29.20
2019-02-06T05:59:20.991Z,30.37
2019-02-06T05:59:55.734Z,31.53
2019-02-06T06:00:37.628Z,33.50
2019-02-06T06:01:12.361Z,33.47
2019-02-06T06:01:46.723Z,32.63
2019-02-06T06:02:21.106Z,30.27
2019-02-06T06:02:55.741Z,29.40
2019-02-06T06:03:30.140Z,28.90
2019-02-06T06:04:04.518Z,27.60
2019-02-06T06:04:38.919Z,33.80
2019-02-06T06:05:13.675Z,37.90
2019-02-06T06:05:48.015Z,31.17
2019-02-06T06:06:22.414Z,30.77
2019-02-06T06:06:56.776Z,27.67
2019-02-06T06:07:44.117Z,30.93
2019-02-06T06:08:07.677Z,31.77
2019-02-06T06:08:42.015Z,31.23
2019-02-06T06:09:16.370Z,33.20
2019-02-06T06:09:50.696Z,32.60
2019-02-06T06:10:25.033Z,34.20
2019-02-06T06:10:59.393Z,31.90
2019-02-06T06:11:33.805Z,26.10
2019-02-06T06:12:08.333Z,36.83
2019-02-06T06:12:42.710Z,34.93
2019-02-06T06:13:18.503Z,31.03
2019-02-06T06:13:53.122Z,30.50
2019-02-06T06:14:27.473Z,33.40
2019-02-06T06:15:01.901Z,33.60
2019-02-06T06:15:36.269Z,29.17
2019-02-06T06:16:10.925Z,29.57
2019-02-06T06:16:45.321Z,29.97
2019-02-06T06:17:19.677Z,38.97
2019-02-06T06:17:54.032Z,30.23
2019-02-06T06:18:28.512Z,31.03
2019-02-06T06:19:03.196Z,32.07
2019-02-06T06:19:37.535Z,28.13
2019-02-06T06:20:12.483Z,31.63
2019-02-06T06:20:46.820Z,37.73
2019-02-06T06:21:21.441Z,32.53
2019-02-06T06:21:56.361Z,33.30
2019-02-06T06:22:30.742Z,33.33
2019-02-06T06:23:05.104Z,39.27
2019-02-06T06:23:39.440Z,28.23
2019-02-06T06:24:13.785Z,34.43
2019-02-06T06:24:48.114Z,32.50
2019-02-06T06:25:22.567Z,32.80
2019-02-06T06:25:57.182Z,31.23
2019-02-06T06:26:31.545Z,33.50
2019-02-06T06:27:06.230Z,37.23
2019-02-06T06:27:40.559Z,29.80
2019-02-06T06:28:15.165Z,36.60
2019-02-06T06:28:49.509Z,32.03
2019-02-06T06:29:23.947Z,32.03
2019-02-06T06:29:58.407Z,38.13
2019-02-06T06:30:32.916Z,29.97
2019-02-06T06:31:07.246Z,32.73
2019-02-06T06:31:41.689Z,33.73
2019-02-06T06:32:16.286Z,32.43
2019-02-06T06:32:51.176Z,33.60
2019-02-06T06:33:25.823Z,35.53
2019-02-06T06:34:00.324Z,29.67
2019-02-06T06:34:34.725Z,35.70
2019-02-06T06:35:10.010Z,37.20
2019-02-06T06:35:44.657Z,38.23
2019-02-06T06:36:19.699Z,31.27
2019-02-06T06:36:56.715Z,32.33
2019-02-06T06:37:30.446Z,29.80
2019-02-06T06:38:04.850Z,34.00
2019-02-06T06:38:39.178Z,31.83
2019-02-06T06:39:13.523Z,31.73
2019-02-06T06:39:47.873Z,32.00
2019-02-06T06:40:22.727Z,28.50
2019-02-06T06:40:57.369Z,32.07
2019-02-06T06:41:31.752Z,32.07
2019-02-06T06:42:06.258Z,30.33
2019-02-06T06:42:40.862Z,29.97
2019-02-06T06:43:16.227Z,29.50
2019-02-06T06:43:50.851Z,28.70
2019-02-06T06:44:25.481Z,33.63
2019-02-06T06:44:59.833Z,36.10
2019-02-06T06:45:34.190Z,31.90
2019-02-06T06:46:08.560Z,29.33
2019-02-06T06:46:43.253Z,29.83
2019-02-06T06:47:17.894Z,33.23
2019-02-06T06:47:52.439Z,29.70
2019-02-06T06:48:26.799Z,30.73
2019-02-06T06:49:01.184Z,32.03
2019-02-06T06:49:35.573Z,31.47
2019-02-06T06:50:12.417Z,32.47
2019-02-06T06:50:46.871Z,29.83
2019-02-06T06:51:21.237Z,30.80
2019-02-06T06:51:55.577Z,30.23
2019-02-06T06:52:30.060Z,33.63
2019-02-06T06:53:04.764Z,27.67
2019-02-06T06:53:39.100Z,29.90
2019-02-06T06:54:13.718Z,31.33
2019-02-06T06:54:48.170Z,29.97
2019-02-06T06:55:22.585Z,32.00
2019-02-06T06:55:56.942Z,31.33
2019-02-06T06:56:31.607Z,31.77
2019-02-06T06:57:05.989Z,29.70
2019-02-06T06:57:40.325Z,35.27
2019-02-06T06:58:14.660Z,31.70
2019-02-06T06:58:48.995Z,30.80
2019-02-06T06:59:23.351Z,29.93
2019-02-06T06:59:57.662Z,32.17
2019-02-06T07:00:32.596Z,33.67
2019-02-06T07:01:07.407Z,32.37
2019-02-06T07:01:41.779Z,30.67
2019-02-06T07:02:16.147Z,31.10
2019-02-06T07:02:50.809Z,34.03
2019-02-06T07:03:25.253Z,29.70
2019-02-06T07:03:59.933Z,31.83
2019-02-06T07:04:34.467Z,34.77
2019-02-06T07:05:09.242Z,32.17
2019-02-06T07:05:43.591Z,32.57
2019-02-06T07:06:18.003Z,34.07
2019-02-06T07:06:52.337Z,31.80
2019-02-06T07:07:26.698Z,32.77
2019-02-06T07:08:09.122Z,36.20
2019-02-06T07:08:37.510Z,33.30
2019-02-06T07:09:12.227Z,35.83
2019-02-06T07:09:46.825Z,31.07
2019-02-06T07:10:21.520Z,33.40
2019-02-06T07:10:55.886Z,32.83
2019-02-06T07:11:30.330Z,32.93
2019-02-06T07:12:05.121Z,31.93
2019-02-06T07:12:39.498Z,32.90
2019-02-06T07:13:14.127Z,35.47
2019-02-06T07:13:51.481Z,33.83
2019-02-06T07:14:24.788Z,30.67
2019-02-06T07:14:59.187Z,32.67
2019-02-06T07:15:34.824Z,31.00
2019-02-06T07:16:09.180Z,32.87
2019-02-06T07:16:43.518Z,31.50
2019-02-06T07:17:17.870Z,34.70
2019-02-06T07:17:52.265Z,35.00
2019-02-06T07:18:27.030Z,39.17
2019-02-06T07:19:01.508Z,35.10
2019-02-06T07:19:35.904Z,34.43
2019-02-06T07:20:12.186Z,32.77
2019-02-06T07:20:46.525Z,34.73
2019-02-06T07:21:20.860Z,36.57
2019-02-06T07:21:55.189Z,35.00
2019-02-06T07:22:29.701Z,32.23
2019-02-06T07:23:04.479Z,35.25
2019-02-06T07:23:39.155Z,32.30
2019-02-06T07:24:13.512Z,32.10
2019-02-06T07:24:48.131Z,32.83
2019-02-06T07:25:22.496Z,34.30
2019-02-06T07:25:56.829Z,34.63
2019-02-06T07:26:31.209Z,35.77
2019-02-06T07:27:05.858Z,33.03
2019-02-06T07:27:40.223Z,35.30
2019-02-06T07:28:14.649Z,32.33